sensor_id;sensor_type;location;lat;lon;timestamp;pressure;altitude;pressure_sealevel;temperature;humidity
69221;BME280;56331;51.992;20.910;2023-07-13T00:01:30;99790.06;;;26.86;50.09
69221;BME280;56331;51.992;20.910;2023-07-13T00:03:56;99787.09;;;26.88;49.95
69221;BME280;56331;51.992;20.910;2023-07-13T00:06:23;99786.55;;;26.96;49.54
69221;BME280;56331;51.992;20.910;2023-07-13T00:08:50;99781.52;;;26.95;49.33
69221;BME280;56331;51.992;20.910;2023-07-13T00:11:16;99774.54;;;26.95;49.25
69221;BME280;56331;51.992;20.910;2023-07-13T00:13:45;99766.98;;;26.99;49.05
69221;BME280;56331;51.992;20.910;2023-07-13T00:16:12;99774.95;;;26.97;48.97
69221;BME280;56331;51.992;20.910;2023-07-13T00:18:39;99766.80;;;27.02;48.72
69221;BME280;56331;51.992;20.910;2023-07-13T00:21:06;99762.20;;;27.03;48.64
69221;BME280;56331;51.992;20.910;2023-07-13T00:23:37;99761.41;;;27.03;48.60
69221;BME280;56331;51.992;20.910;2023-07-13T00:26:06;99767.22;;;27.04;48.46
69221;BME280;56331;51.992;20.910;2023-07-13T00:28:33;99761.81;;;27.01;48.51
69221;BME280;56331;51.992;20.910;2023-07-13T00:31:01;99763.41;;;27.02;48.44
69221;BME280;56331;51.992;20.910;2023-07-13T00:33:28;99769.23;;;27.07;48.30
69221;BME280;56331;51.992;20.910;2023-07-13T00:35:55;99770.39;;;27.02;48.34
69221;BME280;56331;51.992;20.910;2023-07-13T00:38:23;99764.61;;;27.01;48.27
69221;BME280;56331;51.992;20.910;2023-07-13T00:40:49;99762.00;;;26.99;48.36
69221;BME280;56331;51.992;20.910;2023-07-13T00:43:21;99759.81;;;26.98;48.30
69221;BME280;56331;51.992;20.910;2023-07-13T00:48:21;99763.22;;;27.01;48.12
69221;BME280;56331;51.992;20.910;2023-07-13T00:50:51;99773.98;;;27.03;48.07
69221;BME280;56331;51.992;20.910;2023-07-13T00:53:19;99768.39;;;26.99;48.09
69221;BME280;56331;51.992;20.910;2023-07-13T00:55:48;99764.19;;;26.99;48.01
69221;BME280;56331;51.992;20.910;2023-07-13T00:58:16;99766.20;;;27.02;47.94
69221;BME280;56331;51.992;20.910;2023-07-13T01:03:44;99762.78;;;26.96;48.04
69221;BME280;56331;51.992;20.910;2023-07-13T01:06:14;99759.98;;;26.96;47.99
69221;BME280;56331;51.992;20.910;2023-07-13T01:08:41;99758.97;;;26.94;47.91
69221;BME280;56331;51.992;20.910;2023-07-13T01:11:09;99762.56;;;26.95;47.90
69221;BME280;56331;51.992;20.910;2023-07-13T01:13:36;99764.75;;;26.95;47.73
69221;BME280;56331;51.992;20.910;2023-07-13T01:16:05;99767.59;;;26.99;47.71
69221;BME280;56331;51.992;20.910;2023-07-13T01:18:34;99766.34;;;26.93;47.79
69221;BME280;56331;51.992;20.910;2023-07-13T01:21:02;99765.16;;;26.94;47.76
69221;BME280;56331;51.992;20.910;2023-07-13T01:23:30;99759.39;;;26.96;47.66
69221;BME280;56331;51.992;20.910;2023-07-13T01:25:57;99763.58;;;26.96;47.67
69221;BME280;56331;51.992;20.910;2023-07-13T01:28:26;99764.98;;;26.96;47.60
69221;BME280;56331;51.992;20.910;2023-07-13T01:30:55;99769.97;;;26.97;47.52
69221;BME280;56331;51.992;20.910;2023-07-13T01:33:24;99782.55;;;26.97;47.53
69221;BME280;56331;51.992;20.910;2023-07-13T01:35:50;99783.70;;;26.92;47.62
69221;BME280;56331;51.992;20.910;2023-07-13T01:38:21;99787.90;;;26.92;47.56
69221;BME280;56331;51.992;20.910;2023-07-13T01:40:48;99787.72;;;26.95;47.55
69221;BME280;56331;51.992;20.910;2023-07-13T01:43:15;99792.52;;;26.94;47.46
69221;BME280;56331;51.992;20.910;2023-07-13T01:45:43;99796.90;;;26.95;47.44
69221;BME280;56331;51.992;20.910;2023-07-13T01:48:10;99786.73;;;26.93;47.50
69221;BME280;56331;51.992;20.910;2023-07-13T01:50:37;99787.72;;;26.95;47.47
69221;BME280;56331;51.992;20.910;2023-07-13T01:53:04;99780.91;;;26.92;47.42
69221;BME280;56331;51.992;20.910;2023-07-13T01:55:31;99780.72;;;26.91;47.45
69221;BME280;56331;51.992;20.910;2023-07-13T01:57:57;99788.13;;;26.93;47.41
69221;BME280;56331;51.992;20.910;2023-07-13T02:00:24;99777.70;;;26.90;47.40
69221;BME280;56331;51.992;20.910;2023-07-13T02:02:50;99779.70;;;26.90;47.46
69221;BME280;56331;51.992;20.910;2023-07-13T02:05:18;99790.09;;;26.93;47.36
69221;BME280;56331;51.992;20.910;2023-07-13T02:07:44;99787.30;;;26.93;47.35
69221;BME280;56331;51.992;20.910;2023-07-13T02:10:11;99792.33;;;26.97;47.24
69221;BME280;56331;51.992;20.910;2023-07-13T02:12:38;99789.52;;;26.93;47.28
69221;BME280;56331;51.992;20.910;2023-07-13T02:15:05;99784.50;;;26.93;47.26
69221;BME280;56331;51.992;20.910;2023-07-13T02:17:32;99788.50;;;26.92;47.35
69221;BME280;56331;51.992;20.910;2023-07-13T02:20:13;99796.09;;;26.91;47.33
69221;BME280;56331;51.992;20.910;2023-07-13T02:22:40;99803.08;;;26.91;47.36
69221;BME280;56331;51.992;20.910;2023-07-13T02:25:07;99807.09;;;26.94;47.25
69221;BME280;56331;51.992;20.910;2023-07-13T02:27:33;99808.06;;;26.92;47.35
69221;BME280;56331;51.992;20.910;2023-07-13T02:29:59;99806.67;;;26.92;47.37
69221;BME280;56331;51.992;20.910;2023-07-13T02:32:26;99807.28;;;26.95;47.31
69221;BME280;56331;51.992;20.910;2023-07-13T02:34:52;99797.48;;;26.91;47.43
69221;BME280;56331;51.992;20.910;2023-07-13T02:37:19;99797.69;;;26.92;47.45
69221;BME280;56331;51.992;20.910;2023-07-13T02:39:46;99798.89;;;26.91;47.50
69221;BME280;56331;51.992;20.910;2023-07-13T02:42:13;99796.28;;;26.92;47.39
69221;BME280;56331;51.992;20.910;2023-07-13T02:44:40;99795.50;;;26.95;47.28
69221;BME280;56331;51.992;20.910;2023-07-13T02:47:06;99797.06;;;26.89;47.38
69221;BME280;56331;51.992;20.910;2023-07-13T02:49:32;99797.91;;;26.93;47.30
69221;BME280;56331;51.992;20.910;2023-07-13T02:51:59;99798.05;;;26.87;47.41
69221;BME280;56331;51.992;20.910;2023-07-13T02:54:25;99798.27;;;26.88;47.37
69221;BME280;56331;51.992;20.910;2023-07-13T02:56:52;99793.66;;;26.86;47.35
69221;BME280;56331;51.992;20.910;2023-07-13T02:59:18;99796.88;;;26.88;47.22
69221;BME280;56331;51.992;20.910;2023-07-13T03:01:44;99795.47;;;26.88;47.22
69221;BME280;56331;51.992;20.910;2023-07-13T03:04:11;99793.07;;;26.90;47.21
69221;BME280;56331;51.992;20.910;2023-07-13T03:06:38;99795.48;;;26.92;47.25
69221;BME280;56331;51.992;20.910;2023-07-13T03:09:05;99796.65;;;26.87;47.42
69221;BME280;56331;51.992;20.910;2023-07-13T03:11:32;99795.66;;;26.86;47.48
69221;BME280;56331;51.992;20.910;2023-07-13T03:13:58;99798.83;;;26.84;47.54
69221;BME280;56331;51.992;20.910;2023-07-13T03:16:25;99791.78;;;26.77;47.76
69221;BME280;56331;51.992;20.910;2023-07-13T03:18:51;99798.58;;;26.76;47.80
69221;BME280;56331;51.992;20.910;2023-07-13T03:21:19;99795.78;;;26.76;47.84
69221;BME280;56331;51.992;20.910;2023-07-13T03:23:46;99798.38;;;26.75;47.89
69221;BME280;56331;51.992;20.910;2023-07-13T03:26:18;99793.36;;;26.74;47.91
69221;BME280;56331;51.992;20.910;2023-07-13T03:28:45;99791.78;;;26.77;47.85
69221;BME280;56331;51.992;20.910;2023-07-13T03:31:17;99787.20;;;26.75;47.91
69221;BME280;56331;51.992;20.910;2023-07-13T03:33:46;99785.80;;;26.75;47.88
69221;BME280;56331;51.992;20.910;2023-07-13T03:36:16;99780.22;;;26.75;47.96
69221;BME280;56331;51.992;20.910;2023-07-13T03:38:46;99782.78;;;26.74;47.97
69221;BME280;56331;51.992;20.910;2023-07-13T03:41:15;99781.19;;;26.73;48.00
69221;BME280;56331;51.992;20.910;2023-07-13T03:43:41;99786.00;;;26.76;47.90
69221;BME280;56331;51.992;20.910;2023-07-13T03:46:11;99776.22;;;26.76;47.90
69221;BME280;56331;51.992;20.910;2023-07-13T03:48:37;99773.42;;;26.76;47.89
69221;BME280;56331;51.992;20.910;2023-07-13T03:51:05;99769.04;;;26.75;47.93
69221;BME280;56331;51.992;20.910;2023-07-13T03:53:37;99776.83;;;26.79;47.87
69221;BME280;56331;51.992;20.910;2023-07-13T03:56:01;99772.63;;;26.75;47.96
69221;BME280;56331;51.992;20.910;2023-07-13T03:58:37;99770.63;;;26.76;47.92
69221;BME280;56331;51.992;20.910;2023-07-13T04:01:01;99770.63;;;26.76;47.96
69221;BME280;56331;51.992;20.910;2023-07-13T04:03:29;99773.41;;;26.72;48.05
69221;BME280;56331;51.992;20.910;2023-07-13T04:05:58;99781.02;;;26.79;47.94
69221;BME280;56331;51.992;20.910;2023-07-13T04:08:32;99782.80;;;26.77;48.01
69221;BME280;56331;51.992;20.910;2023-07-13T04:10:59;99788.39;;;26.77;48.02
69221;BME280;56331;51.992;20.910;2023-07-13T04:13:26;99791.18;;;26.77;48.03
69221;BME280;56331;51.992;20.910;2023-07-13T04:15:53;99787.95;;;26.72;48.19
69221;BME280;56331;51.992;20.910;2023-07-13T04:18:20;99792.19;;;26.75;48.11
69221;BME280;56331;51.992;20.910;2023-07-13T04:20:48;99802.34;;;26.74;48.19
69221;BME280;56331;51.992;20.910;2023-07-13T04:23:16;99815.52;;;26.73;48.26
69221;BME280;56331;51.992;20.910;2023-07-13T04:25:48;99818.12;;;26.72;48.30
69221;BME280;56331;51.992;20.910;2023-07-13T04:28:16;99817.52;;;26.73;48.36
69221;BME280;56331;51.992;20.910;2023-07-13T04:30:44;99826.88;;;26.71;48.45
69221;BME280;56331;51.992;20.910;2023-07-13T04:33:10;99829.67;;;26.71;48.50
69221;BME280;56331;51.992;20.910;2023-07-13T04:35:37;99831.06;;;26.71;48.55
69221;BME280;56331;51.992;20.910;2023-07-13T04:38:03;99832.09;;;26.72;48.54
69221;BME280;56331;51.992;20.910;2023-07-13T04:40:30;99834.28;;;26.73;48.61
69221;BME280;56331;51.992;20.910;2023-07-13T04:42:56;99835.88;;;26.74;48.62
69221;BME280;56331;51.992;20.910;2023-07-13T04:45:24;99845.64;;;26.70;48.71
69221;BME280;56331;51.992;20.910;2023-07-13T04:47:51;99845.83;;;26.71;48.71
69221;BME280;56331;51.992;20.910;2023-07-13T04:50:17;99842.44;;;26.72;48.73
69221;BME280;56331;51.992;20.910;2023-07-13T04:52:46;99843.04;;;26.71;48.83
69221;BME280;56331;51.992;20.910;2023-07-13T04:55:12;99840.42;;;26.69;48.95
69221;BME280;56331;51.992;20.910;2023-07-13T04:57:39;99851.64;;;26.72;48.88
69221;BME280;56331;51.992;20.910;2023-07-13T05:00:06;99851.05;;;26.73;48.90
69221;BME280;56331;51.992;20.910;2023-07-13T05:02:33;99851.64;;;26.72;48.92
69221;BME280;56331;51.992;20.910;2023-07-13T05:05:01;99844.26;;;26.74;48.92
69221;BME280;56331;51.992;20.910;2023-07-13T05:07:29;99841.09;;;26.75;49.04
69221;BME280;56331;51.992;20.910;2023-07-13T05:09:56;99847.83;;;26.71;49.16
69221;BME280;56331;51.992;20.910;2023-07-13T05:12:23;99853.23;;;26.73;49.20
69221;BME280;56331;51.992;20.910;2023-07-13T05:14:49;99857.86;;;26.75;49.25
69221;BME280;56331;51.992;20.910;2023-07-13T05:17:16;99854.83;;;26.74;49.38
69221;BME280;56331;51.992;20.910;2023-07-13T05:19:45;99849.48;;;26.79;49.35
69221;BME280;56331;51.992;20.910;2023-07-13T05:22:11;99852.27;;;26.75;49.54
69221;BME280;56331;51.992;20.910;2023-07-13T05:24:38;99860.47;;;26.78;49.60
69221;BME280;56331;51.992;20.910;2023-07-13T05:27:05;99864.86;;;26.79;49.63
69221;BME280;56331;51.992;20.910;2023-07-13T05:29:32;99864.06;;;26.78;49.76
69221;BME280;56331;51.992;20.910;2023-07-13T05:31:59;99868.67;;;26.80;49.90
69221;BME280;56331;51.992;20.910;2023-07-13T05:34:25;99873.06;;;26.81;49.86
69221;BME280;56331;51.992;20.910;2023-07-13T05:36:52;99879.80;;;26.77;50.13
69221;BME280;56331;51.992;20.910;2023-07-13T05:39:19;99884.17;;;26.74;50.24
69221;BME280;56331;51.992;20.910;2023-07-13T05:41:46;99884.75;;;26.70;50.36
69221;BME280;56331;51.992;20.910;2023-07-13T05:47:07;99882.20;;;26.75;50.50
69221;BME280;56331;51.992;20.910;2023-07-13T05:49:34;99874.45;;;26.78;50.57
69221;BME280;56331;51.992;20.910;2023-07-13T05:52:01;99881.82;;;26.80;50.61
69221;BME280;56331;51.992;20.910;2023-07-13T05:54:27;99886.02;;;26.80;50.60
69221;BME280;56331;51.992;20.910;2023-07-13T05:56:56;99885.81;;;26.79;50.73
69221;BME280;56331;51.992;20.910;2023-07-13T05:59:25;99886.19;;;26.77;50.87
69221;BME280;56331;51.992;20.910;2023-07-13T06:01:51;99877.44;;;26.79;50.94
69221;BME280;56331;51.992;20.910;2023-07-13T06:04:20;99874.39;;;26.74;51.07
69221;BME280;56331;51.992;20.910;2023-07-13T06:06:47;99876.03;;;26.79;51.12
69221;BME280;56331;51.992;20.910;2023-07-13T06:09:14;99884.84;;;26.81;51.11
69221;BME280;56331;51.992;20.910;2023-07-13T06:11:40;99877.63;;;26.80;51.21
69221;BME280;56331;51.992;20.910;2023-07-13T06:14:06;99882.60;;;26.77;51.32
69221;BME280;56331;51.992;20.910;2023-07-13T06:16:33;99881.00;;;26.76;51.37
69221;BME280;56331;51.992;20.910;2023-07-13T06:18:59;99881.55;;;26.72;51.54
69221;BME280;56331;51.992;20.910;2023-07-13T06:21:26;99879.59;;;26.72;51.64
69221;BME280;56331;51.992;20.910;2023-07-13T06:23:52;99870.19;;;26.71;51.68
69221;BME280;56331;51.992;20.910;2023-07-13T06:26:20;99875.58;;;26.70;51.76
69221;BME280;56331;51.992;20.910;2023-07-13T06:28:48;99875.58;;;26.70;51.93
69221;BME280;56331;51.992;20.910;2023-07-13T06:31:16;99875.02;;;26.77;51.86
69221;BME280;56331;51.992;20.910;2023-07-13T06:33:43;99880.98;;;26.72;52.19
69221;BME280;56331;51.992;20.910;2023-07-13T06:36:12;99872.95;;;26.67;52.25
69221;BME280;56331;51.992;20.910;2023-07-13T06:38:38;99872.55;;;26.69;52.40
69221;BME280;56331;51.992;20.910;2023-07-13T06:41:06;99874.55;;;26.68;52.44
69221;BME280;56331;51.992;20.910;2023-07-13T06:43:33;99869.76;;;26.69;52.66
69221;BME280;56331;51.992;20.910;2023-07-13T06:45:59;99871.38;;;26.70;52.75
69221;BME280;56331;51.992;20.910;2023-07-13T06:48:27;99871.75;;;26.68;53.40
69221;BME280;56331;51.992;20.910;2023-07-13T06:50:54;99870.53;;;26.66;53.44
69221;BME280;56331;51.992;20.910;2023-07-13T06:53:20;99872.48;;;26.61;53.75
69221;BME280;56331;51.992;20.910;2023-07-13T06:55:48;99878.07;;;26.61;54.13
69221;BME280;56331;51.992;20.910;2023-07-13T06:58:16;99880.86;;;26.61;54.27
69221;BME280;56331;51.992;20.910;2023-07-13T07:00:43;99879.87;;;26.60;54.53
69221;BME280;56331;51.992;20.910;2023-07-13T07:03:09;99878.24;;;26.59;54.63
69221;BME280;56331;51.992;20.910;2023-07-13T07:05:35;99878.47;;;26.60;54.73
69221;BME280;56331;51.992;20.910;2023-07-13T07:08:02;99874.28;;;26.60;54.85
69221;BME280;56331;51.992;20.910;2023-07-13T07:10:29;99870.69;;;26.59;54.93
69221;BME280;56331;51.992;20.910;2023-07-13T07:12:56;99880.30;;;26.62;54.94
69221;BME280;56331;51.992;20.910;2023-07-13T07:15:22;99875.70;;;26.63;54.73
69221;BME280;56331;51.992;20.910;2023-07-13T07:17:49;99884.70;;;26.67;54.46
69221;BME280;56331;51.992;20.910;2023-07-13T07:20:15;99885.13;;;26.69;54.52
69221;BME280;56331;51.992;20.910;2023-07-13T07:22:42;99885.55;;;26.71;54.53
69221;BME280;56331;51.992;20.910;2023-07-13T07:25:08;99887.37;;;26.73;54.54
69221;BME280;56331;51.992;20.910;2023-07-13T07:27:34;99874.62;;;26.75;54.50
69221;BME280;56331;51.992;20.910;2023-07-13T07:30:01;99880.03;;;26.78;54.45
69221;BME280;56331;51.992;20.910;2023-07-13T07:32:29;99877.44;;;26.79;54.41
69221;BME280;56331;51.992;20.910;2023-07-13T07:34:57;99877.45;;;26.82;54.50
69221;BME280;56331;51.992;20.910;2023-07-13T07:37:24;99876.05;;;26.82;54.50
69221;BME280;56331;51.992;20.910;2023-07-13T07:39:51;99877.08;;;26.84;54.57
69221;BME280;56331;51.992;20.910;2023-07-13T07:42:17;99876.70;;;26.86;54.71
69221;BME280;56331;51.992;20.910;2023-07-13T07:44:44;99883.52;;;26.88;54.70
69221;BME280;56331;51.992;20.910;2023-07-13T07:47:13;99875.33;;;26.89;54.63
69221;BME280;56331;51.992;20.910;2023-07-13T07:49:39;99870.76;;;26.91;54.71
69221;BME280;56331;51.992;20.910;2023-07-13T07:52:06;99879.16;;;26.94;53.00
69221;BME280;56331;51.992;20.910;2023-07-13T07:54:33;99881.97;;;26.98;52.83
69221;BME280;56331;51.992;20.910;2023-07-13T07:56:59;99887.38;;;27.00;53.11
69221;BME280;56331;51.992;20.910;2023-07-13T07:59:26;99890.80;;;27.03;53.04
69221;BME280;56331;51.992;20.910;2023-07-13T08:01:52;99887.43;;;27.04;52.91
69221;BME280;56331;51.992;20.910;2023-07-13T08:04:19;99897.78;;;27.03;52.96
69221;BME280;56331;51.992;20.910;2023-07-13T08:06:45;99894.42;;;27.04;53.11
69221;BME280;56331;51.992;20.910;2023-07-13T08:09:13;99890.22;;;27.04;53.21
69221;BME280;56331;51.992;20.910;2023-07-13T08:11:40;99889.82;;;27.05;53.35
69221;BME280;56331;51.992;20.910;2023-07-13T08:14:06;99889.86;;;27.09;53.35
69221;BME280;56331;51.992;20.910;2023-07-13T08:16:33;99881.49;;;27.13;53.53
69221;BME280;56331;51.992;20.910;2023-07-13T08:18:59;99881.69;;;27.14;53.17
69221;BME280;56331;51.992;20.910;2023-07-13T08:21:26;99869.94;;;27.14;53.13
69221;BME280;56331;51.992;20.910;2023-07-13T08:23:52;99867.98;;;27.18;53.25
69221;BME280;56331;51.992;20.910;2023-07-13T08:26:19;99863.41;;;27.20;53.56
69221;BME280;56331;51.992;20.910;2023-07-13T08:28:45;99862.42;;;27.22;53.71
69221;BME280;56331;51.992;20.910;2023-07-13T08:31:12;99865.04;;;27.24;53.77
69221;BME280;56331;51.992;20.910;2023-07-13T08:33:38;99861.45;;;27.27;53.90
69221;BME280;56331;51.992;20.910;2023-07-13T08:36:06;99855.87;;;27.27;54.03
69221;BME280;56331;51.992;20.910;2023-07-13T08:38:33;99859.88;;;27.30;54.11
69221;BME280;56331;51.992;20.910;2023-07-13T08:41:03;99860.07;;;27.31;54.17
69221;BME280;56331;51.992;20.910;2023-07-13T08:43:35;99863.48;;;27.34;54.17
69221;BME280;56331;51.992;20.910;2023-07-13T08:46:06;99864.50;;;27.36;54.23
69221;BME280;56331;51.992;20.910;2023-07-13T08:48:53;99865.72;;;27.38;54.37
69221;BME280;56331;51.992;20.910;2023-07-13T08:51:33;99864.13;;;27.41;54.24
69221;BME280;56331;51.992;20.910;2023-07-13T08:54:03;99864.93;;;27.41;53.82
69221;BME280;56331;51.992;20.910;2023-07-13T08:56:31;99867.55;;;27.44;53.54
69221;BME280;56331;51.992;20.910;2023-07-13T08:59:02;99866.38;;;27.48;53.32
69221;BME280;56331;51.992;20.910;2023-07-13T09:02:09;99873.19;;;27.51;53.08
69221;BME280;56331;51.992;20.910;2023-07-13T09:04:42;99870.20;;;27.54;52.96
69221;BME280;56331;51.992;20.910;2023-07-13T09:07:17;99863.81;;;27.53;53.07
69221;BME280;56331;51.992;20.910;2023-07-13T09:14:53;99867.59;;;27.55;53.57
69221;BME280;56331;51.992;20.910;2023-07-13T09:17:27;99865.02;;;27.56;53.53
69221;BME280;56331;51.992;20.910;2023-07-13T09:20:10;99865.63;;;27.59;53.74
69221;BME280;56331;51.992;20.910;2023-07-13T09:22:34;99868.62;;;27.60;52.91
69221;BME280;56331;51.992;20.910;2023-07-13T09:25:05;99861.82;;;27.61;51.61
69221;BME280;56331;51.992;20.910;2023-07-13T09:27:40;99864.05;;;27.61;51.97
69221;BME280;56331;51.992;20.910;2023-07-13T09:32:44;99861.44;;;27.59;52.63
69221;BME280;56331;51.992;20.910;2023-07-13T09:35:12;99859.43;;;27.59;52.98
69221;BME280;56331;51.992;20.910;2023-07-13T09:37:43;99855.42;;;27.60;51.26
69221;BME280;56331;51.992;20.910;2023-07-13T09:40:35;99851.45;;;27.61;51.51
69221;BME280;56331;51.992;20.910;2023-07-13T09:42:59;99845.64;;;27.60;51.61
69221;BME280;56331;51.992;20.910;2023-07-13T09:45:30;99852.66;;;27.64;52.51
69221;BME280;56331;51.992;20.910;2023-07-13T09:48:06;99843.06;;;27.65;53.06
69221;BME280;56331;51.992;20.910;2023-07-13T09:50:34;99845.27;;;27.65;53.10
69221;BME280;56331;51.992;20.910;2023-07-13T09:53:01;99836.06;;;27.65;53.39
69221;BME280;56331;51.992;20.910;2023-07-13T09:55:37;99831.08;;;27.64;52.88
69221;BME280;56331;51.992;20.910;2023-07-13T10:00:42;99809.08;;;27.63;52.41
69221;BME280;56331;51.992;20.910;2023-07-13T10:03:23;99813.27;;;27.63;54.06
69221;BME280;56331;51.992;20.910;2023-07-13T10:05:50;99810.28;;;27.62;53.42
69221;BME280;56331;51.992;20.910;2023-07-13T10:10:49;99804.27;;;27.60;53.99
69221;BME280;56331;51.992;20.910;2023-07-13T10:13:33;99807.67;;;27.59;53.80
69221;BME280;56331;51.992;20.910;2023-07-13T10:16:01;99806.05;;;27.58;53.75
69221;BME280;56331;51.992;20.910;2023-07-13T10:18:29;99805.86;;;27.57;54.36
69221;BME280;56331;51.992;20.910;2023-07-13T10:21:13;99798.67;;;27.56;52.90
69221;BME280;56331;51.992;20.910;2023-07-13T10:23:36;99798.27;;;27.58;52.47
69221;BME280;56331;51.992;20.910;2023-07-13T10:26:05;99795.08;;;27.56;53.41
69221;BME280;56331;51.992;20.910;2023-07-13T10:28:35;99796.06;;;27.54;52.40
69221;BME280;56331;51.992;20.910;2023-07-13T10:31:06;99784.45;;;27.52;52.67
69221;BME280;56331;51.992;20.910;2023-07-13T10:33:33;99783.66;;;27.51;52.59
69221;BME280;56331;51.992;20.910;2023-07-13T10:36:33;99780.86;;;27.51;52.46
69221;BME280;56331;51.992;20.910;2023-07-13T10:38:47;99782.67;;;27.53;52.44
69221;BME280;56331;51.992;20.910;2023-07-13T10:41:20;99775.27;;;27.51;52.34
69221;BME280;56331;51.992;20.910;2023-07-13T10:43:50;99778.06;;;27.51;52.17
69221;BME280;56331;51.992;20.910;2023-07-13T10:46:18;99780.26;;;27.52;52.32
69221;BME280;56331;51.992;20.910;2023-07-13T10:48:48;99777.08;;;27.53;52.12
69221;BME280;56331;51.992;20.910;2023-07-13T10:51:18;99778.06;;;27.55;52.19
69221;BME280;56331;51.992;20.910;2023-07-13T10:53:47;99785.06;;;27.55;52.25
69221;BME280;56331;51.992;20.910;2023-07-13T10:56:30;99796.25;;;27.55;52.26
69221;BME280;56331;51.992;20.910;2023-07-13T11:01:50;99800.26;;;27.57;52.16
69221;BME280;56331;51.992;20.910;2023-07-13T11:04:18;99808.84;;;27.55;52.22
69221;BME280;56331;51.992;20.910;2023-07-13T11:06:48;99836.62;;;27.54;52.15
69221;BME280;56331;51.992;20.910;2023-07-13T11:12:00;99861.38;;;27.48;50.16
69221;BME280;56331;51.992;20.910;2023-07-13T11:14:37;99855.38;;;27.46;50.00
69221;BME280;56331;51.992;20.910;2023-07-13T11:19:51;99880.97;;;27.48;50.21
69221;BME280;56331;51.992;20.910;2023-07-13T11:22:24;99885.36;;;27.49;50.01
69221;BME280;56331;51.992;20.910;2023-07-13T11:25:00;99895.33;;;27.46;50.42
69221;BME280;56331;51.992;20.910;2023-07-13T11:27:41;99903.91;;;27.47;50.25
69221;BME280;56331;51.992;20.910;2023-07-13T11:36:04;99908.52;;;27.46;49.46
69221;BME280;56331;51.992;20.910;2023-07-13T11:38:37;99914.86;;;27.39;48.04
69221;BME280;56331;51.992;20.910;2023-07-13T11:41:19;99925.23;;;27.35;48.24
69221;BME280;56331;51.992;20.910;2023-07-13T11:43:50;99933.22;;;27.37;49.12
69221;BME280;56331;51.992;20.910;2023-07-13T11:48:49;99952.80;;;27.37;49.38
69221;BME280;56331;51.992;20.910;2023-07-13T11:51:31;99956.81;;;27.39;50.00
69221;BME280;56331;51.992;20.910;2023-07-13T11:54:16;99974.80;;;27.38;50.01
69221;BME280;56331;51.992;20.910;2023-07-13T11:56:42;99987.39;;;27.38;50.19
69221;BME280;56331;51.992;20.910;2023-07-13T11:59:10;99986.36;;;27.37;50.33
69221;BME280;56331;51.992;20.910;2023-07-13T12:01:42;99976.80;;;27.38;51.04
69221;BME280;56331;51.992;20.910;2023-07-13T12:04:18;99986.41;;;27.40;50.69
69221;BME280;56331;51.992;20.910;2023-07-13T12:06:38;99980.45;;;27.45;50.91
69221;BME280;56331;51.992;20.910;2023-07-13T12:09:14;99979.27;;;27.50;51.63
69221;BME280;56331;51.992;20.910;2023-07-13T12:11:44;99986.67;;;27.48;51.05
69221;BME280;56331;51.992;20.910;2023-07-13T12:14:15;99992.46;;;27.49;51.30
69221;BME280;56331;51.992;20.910;2023-07-13T12:16:42;99991.28;;;27.51;51.70
69221;BME280;56331;51.992;20.910;2023-07-13T12:19:25;99983.28;;;27.53;52.71
69221;BME280;56331;51.992;20.910;2023-07-13T12:21:49;99990.33;;;27.56;51.42
69221;BME280;56331;51.992;20.910;2023-07-13T12:24:17;99982.73;;;27.57;51.30
69221;BME280;56331;51.992;20.910;2023-07-13T12:27:00;99972.33;;;27.57;51.46
69221;BME280;56331;51.992;20.910;2023-07-13T12:29:23;99969.16;;;27.59;52.85
69221;BME280;56331;51.992;20.910;2023-07-13T12:31:50;99970.33;;;27.58;52.73
69221;BME280;56331;51.992;20.910;2023-07-13T12:34:21;99971.17;;;27.62;56.10
69221;BME280;56331;51.992;20.910;2023-07-13T12:36:53;99964.59;;;27.64;55.93
69221;BME280;56331;51.992;20.910;2023-07-13T12:39:38;99955.00;;;27.65;54.21
69221;BME280;56331;51.992;20.910;2023-07-13T12:45:00;99947.58;;;27.63;53.10
69221;BME280;56331;51.992;20.910;2023-07-13T12:47:27;99953.58;;;27.61;52.75
69221;BME280;56331;51.992;20.910;2023-07-13T12:49:58;99954.16;;;27.61;52.65
69221;BME280;56331;51.992;20.910;2023-07-13T12:52:30;99949.77;;;27.60;52.57
69221;BME280;56331;51.992;20.910;2023-07-13T12:55:05;99951.16;;;27.60;52.50
69221;BME280;56331;51.992;20.910;2023-07-13T12:57:39;99949.57;;;27.59;52.60
69221;BME280;56331;51.992;20.910;2023-07-13T13:00:18;99953.34;;;27.57;52.43
69221;BME280;56331;51.992;20.910;2023-07-13T13:02:36;99955.95;;;27.56;55.54
69221;BME280;56331;51.992;20.910;2023-07-13T13:05:03;99951.09;;;27.49;52.40
69221;BME280;56331;51.992;20.910;2023-07-13T13:07:31;99953.23;;;27.42;52.53
69221;BME280;56331;51.992;20.910;2023-07-13T13:09:57;99958.39;;;27.37;51.73
69221;BME280;56331;51.992;20.910;2023-07-13T13:12:23;99961.97;;;27.34;51.43
69221;BME280;56331;51.992;20.910;2023-07-13T13:14:55;99962.16;;;27.31;51.35
69221;BME280;56331;51.992;20.910;2023-07-13T13:17:24;99972.34;;;27.30;51.52
69221;BME280;56331;51.992;20.910;2023-07-13T13:19:53;99981.11;;;27.28;51.70
69221;BME280;56331;51.992;20.910;2023-07-13T13:22:20;99984.69;;;27.25;51.09
69221;BME280;56331;51.992;20.910;2023-07-13T13:24:47;99979.52;;;27.27;52.12
69221;BME280;56331;51.992;20.910;2023-07-13T13:27:18;99982.09;;;27.26;51.61
69221;BME280;56331;51.992;20.910;2023-07-13T13:29:46;99991.68;;;27.25;50.83
69221;BME280;56331;51.992;20.910;2023-07-13T13:32:14;99995.83;;;27.21;51.13
69221;BME280;56331;51.992;20.910;2023-07-13T13:34:41;99994.23;;;27.20;51.98
69221;BME280;56331;51.992;20.910;2023-07-13T13:37:23;99987.05;;;27.19;51.39
69221;BME280;56331;51.992;20.910;2023-07-13T13:39:48;99986.64;;;27.21;51.31